Startpagina
METAR-TAF:

METAR-TAF

Vliegvelden :

Vliegbasis Deelen

Arnhem, Nederland

breedte: 52-04N, lengte: 005-53E, hoogte: 48 m

Actueel weer

Dit bericht is 30 minuten geleden gemaakt, om 15:25 UTC
Wind 3 kt uit het oostnoordoosten, variërend tussen het noorden en het zuidzuidoosten
Temperatuur 1°C
Vochtigheid 69%
Druk 1019 hPa
Zicht 10 km of meer

METAR: EHDL 201525Z AUTO 07003KT 360V160 9999 NCD 01/M04 Q1019 BLU

Tijdstip: 16:55 (15:55 UTC)


TAF: ontbreekt

Waarnemingen en weersverwachtingen van meer dan 4000 vliegvelden (METAR en TAF).

De beschikbare stations zijn de gele en rode punten op de kaart.

Ga met uw muis naar het station om de naam te zien.

Klik dan om waarnemingen en weersverwachtingen te zien.

kaart wijzigen: klik op de groene knoppen met een zwart kruis om in te zoomen, op de groene knop met een streepje om uit te zoomen of op de groene pijlen voor aangrenzende kaarten.


METAR-TAF: